createdAt,value
2019-04-25T00:01:27.340Z,13.37
2019-04-25T00:03:55.562Z,13.29
2019-04-25T00:06:25.480Z,13.26
2019-04-25T00:08:53.715Z,13.25
2019-04-25T00:11:22.069Z,13.27
2019-04-25T00:13:51.599Z,13.34
2019-04-25T00:16:21.648Z,13.41
2019-04-25T00:18:49.820Z,13.40
2019-04-25T00:21:22.543Z,13.39
2019-04-25T00:23:55.447Z,13.36
2019-04-25T00:26:25.365Z,13.45
2019-04-25T00:28:53.583Z,13.39
2019-04-25T00:31:22.087Z,13.26
2019-04-25T00:33:50.337Z,13.27
2019-04-25T00:36:18.614Z,13.36
2019-04-25T00:38:48.243Z,13.27
2019-04-25T00:41:16.941Z,13.30
2019-04-25T00:43:45.392Z,13.26
2019-04-25T00:46:13.608Z,13.22
2019-04-25T00:48:43.142Z,13.22
2019-04-25T00:51:11.833Z,13.16
2019-04-25T00:53:41.811Z,12.97
2019-04-25T00:56:11.256Z,12.92
2019-04-25T00:58:44.453Z,12.86
2019-04-25T01:01:23.996Z,12.82
2019-04-25T01:03:53.654Z,12.74
2019-04-25T01:06:22.396Z,12.69
2019-04-25T01:08:53.239Z,12.63
2019-04-25T01:11:21.500Z,12.65
2019-04-25T01:13:50.859Z,12.58
2019-04-25T01:16:20.156Z,12.53
2019-04-25T01:18:48.766Z,12.52
2019-04-25T01:21:16.990Z,12.50
2019-04-25T01:23:45.823Z,12.41
2019-04-25T01:26:14.182Z,12.48
2019-04-25T01:28:43.894Z,12.55
2019-04-25T01:31:14.115Z,12.57
2019-04-25T01:33:43.336Z,12.50
2019-04-25T01:36:29.637Z,12.40
2019-04-25T01:38:59.555Z,12.41
2019-04-25T01:41:45.532Z,12.39
2019-04-25T01:44:24.200Z,12.22
2019-04-25T01:46:54.203Z,12.15
2019-04-25T01:49:23.922Z,12.21
2019-04-25T01:51:54.137Z,12.07
2019-04-25T01:54:23.793Z,12.04
2019-04-25T01:56:53.561Z,12.02
2019-04-25T01:59:23.654Z,11.94
2019-04-25T02:01:54.591Z,11.91
2019-04-25T02:04:23.195Z,11.88
2019-04-25T02:06:53.666Z,11.74
2019-04-25T02:09:23.559Z,11.82
2019-04-25T02:11:54.739Z,11.82
2019-04-25T02:14:23.771Z,11.81
2019-04-25T02:16:53.194Z,11.91
2019-04-25T02:19:22.123Z,12.06
2019-04-25T02:21:50.471Z,12.13
2019-04-25T02:24:18.747Z,12.04
2019-04-25T02:26:46.971Z,12.04
2019-04-25T02:29:15.243Z,11.98
2019-04-25T02:31:44.980Z,11.88
2019-04-25T02:34:17.430Z,11.66
2019-04-25T02:36:46.507Z,11.34
2019-04-25T02:39:15.623Z,11.41
2019-04-25T02:41:44.478Z,11.51
2019-04-25T02:44:14.567Z,11.47
2019-04-25T02:46:55.826Z,11.36
2019-04-25T02:49:36.873Z,11.54
2019-04-25T02:52:08.456Z,11.58
2019-04-25T02:54:34.818Z,11.64
2019-04-25T02:57:06.555Z,11.67
2019-04-25T02:59:36.630Z,11.59
2019-04-25T03:02:05.402Z,11.66
2019-04-25T03:04:33.911Z,11.51
2019-04-25T03:07:07.189Z,11.46
2019-04-25T03:09:35.028Z,11.56
2019-04-25T03:12:04.895Z,11.53
2019-04-25T03:14:34.971Z,11.25
2019-04-25T03:17:05.111Z,11.06
2019-04-25T03:19:37.176Z,11.16
2019-04-25T03:22:11.714Z,10.90
2019-04-25T03:24:39.462Z,10.97
2019-04-25T03:27:07.694Z,11.10
2019-04-25T03:29:35.985Z,11.12
2019-04-25T03:32:09.260Z,11.20
2019-04-25T03:34:35.077Z,11.20
2019-04-25T03:37:05.290Z,11.23
2019-04-25T03:39:33.757Z,11.23
2019-04-25T03:42:02.224Z,11.30
2019-04-25T03:44:31.088Z,11.06
2019-04-25T03:46:59.418Z,11.00
2019-04-25T03:49:27.649Z,10.67
2019-04-25T03:51:55.939Z,10.74
2019-04-25T03:54:24.174Z,10.88
2019-04-25T03:56:55.912Z,10.90
2019-04-25T03:59:23.661Z,11.02
2019-04-25T04:01:53.707Z,11.15
2019-04-25T04:04:23.574Z,11.20
2019-04-25T04:06:53.623Z,11.19
2019-04-25T04:09:23.889Z,11.24
2019-04-25T04:11:53.460Z,11.40
2019-04-25T04:14:23.825Z,11.54
2019-04-25T04:17:10.727Z,11.60
2019-04-25T04:19:41.029Z,11.69
2019-04-25T04:22:24.140Z,11.73
2019-04-25T04:24:54.078Z,11.71
2019-04-25T04:27:23.876Z,11.72
2019-04-25T04:29:52.252Z,11.69
2019-04-25T04:32:20.493Z,11.70
2019-04-25T04:34:48.775Z,11.76
2019-04-25T04:37:17.564Z,11.71
2019-04-25T04:39:46.067Z,11.72
2019-04-25T04:42:14.939Z,11.79
2019-04-25T04:44:44.146Z,11.82
2019-04-25T04:47:14.086Z,11.79
2019-04-25T04:49:43.966Z,11.78
2019-04-25T04:52:12.912Z,11.82
2019-04-25T04:54:43.878Z,11.87
2019-04-25T04:57:23.222Z,11.93
2019-04-25T04:59:43.829Z,12.14
2019-04-25T05:02:15.789Z,12.25
2019-04-25T05:05:03.570Z,12.34
2019-04-25T05:07:43.935Z,12.44
2019-04-25T05:10:13.526Z,12.51
2019-04-25T05:12:43.793Z,12.54
2019-04-25T05:15:14.839Z,12.68
2019-04-25T05:17:43.928Z,12.92
2019-04-25T05:20:13.316Z,13.15
2019-04-25T05:22:42.351Z,13.36
2019-04-25T05:25:10.587Z,13.52
2019-04-25T05:27:56.759Z,13.65
2019-04-25T05:30:10.920Z,13.72
2019-04-25T05:32:39.212Z,13.88
2019-04-25T05:35:07.424Z,14.00
2019-04-25T05:37:35.697Z,14.04
2019-04-25T05:40:07.337Z,14.11
2019-04-25T05:42:39.936Z,14.18
2019-04-25T05:45:08.167Z,14.26
2019-04-25T05:47:36.457Z,14.46
2019-04-25T05:50:06.363Z,14.67
2019-04-25T05:52:34.583Z,14.72
2019-04-25T05:55:03.972Z,14.71
2019-04-25T05:57:44.883Z,14.68
2019-04-25T06:00:03.678Z,14.67
2019-04-25T06:02:32.009Z,14.65
2019-04-25T06:05:00.276Z,14.63
2019-04-25T06:07:28.517Z,14.70
2019-04-25T06:09:58.431Z,14.78
2019-04-25T06:12:28.303Z,14.82
2019-04-25T06:14:56.585Z,14.94
2019-04-25T06:17:26.452Z,14.91
2019-04-25T06:19:56.155Z,14.87
2019-04-25T06:22:26.823Z,14.83
2019-04-25T06:24:57.046Z,14.84
2019-04-25T06:27:27.143Z,14.91
2019-04-25T06:29:59.173Z,14.91
2019-04-25T06:32:27.010Z,14.84
2019-04-25T06:34:55.240Z,14.79
2019-04-25T06:37:24.927Z,14.75
2019-04-25T06:39:53.740Z,14.70
2019-04-25T06:42:23.060Z,14.66
2019-04-25T06:45:03.572Z,14.66
2019-04-25T06:47:36.334Z,14.64
2019-04-25T06:50:05.791Z,14.69
2019-04-25T06:52:35.414Z,14.77
2019-04-25T06:55:06.004Z,14.91
2019-04-25T06:57:34.294Z,15.01
2019-04-25T07:00:04.328Z,15.13
2019-04-25T07:02:33.576Z,15.22
2019-04-25T07:05:03.954Z,15.31
2019-04-25T07:07:34.208Z,15.38
2019-04-25T07:10:03.636Z,15.44
2019-04-25T07:12:33.014Z,15.47
2019-04-25T07:15:03.806Z,15.48
2019-04-25T07:17:34.312Z,15.55
2019-04-25T07:20:03.842Z,15.63
2019-04-25T07:22:33.533Z,15.67
2019-04-25T07:25:03.637Z,15.71
2019-04-25T07:27:39.530Z,15.81
2019-04-25T07:30:26.712Z,15.89
2019-04-25T07:32:48.701Z,15.97
2019-04-25T07:35:17.045Z,16.07
2019-04-25T07:37:45.283Z,16.19
2019-04-25T07:40:13.982Z,16.35
2019-04-25T07:42:43.885Z,16.54
2019-04-25T07:45:13.906Z,16.73
2019-04-25T07:47:44.120Z,16.94
2019-04-25T07:50:13.915Z,17.10
2019-04-25T07:52:44.185Z,17.30
2019-04-25T07:55:13.769Z,17.41
2019-04-25T07:57:44.189Z,17.64
2019-04-25T08:00:13.371Z,17.71
2019-04-25T08:02:43.434Z,17.79
2019-04-25T08:05:14.403Z,17.97
2019-04-25T08:07:43.696Z,18.11
2019-04-25T08:10:13.911Z,18.19
2019-04-25T08:12:44.416Z,18.33
2019-04-25T08:15:29.959Z,18.54
2019-04-25T08:18:05.808Z,18.76
2019-04-25T08:20:34.702Z,18.87
2019-04-25T08:23:04.367Z,18.82
2019-04-25T08:25:33.786Z,18.89
2019-04-25T08:28:03.810Z,19.03
2019-04-25T08:30:34.187Z,19.14
2019-04-25T08:33:03.866Z,19.36
2019-04-25T08:35:34.237Z,19.41
2019-04-25T08:38:05.812Z,19.63
2019-04-25T08:40:35.995Z,20.01
2019-04-25T08:43:03.630Z,20.11
2019-04-25T08:45:33.087Z,20.11
2019-04-25T08:48:03.550Z,20.22
2019-04-25T08:50:49.854Z,20.24
2019-04-25T08:53:18.090Z,20.32
2019-04-25T08:55:56.849Z,20.49
2019-04-25T08:58:44.678Z,20.60
2019-04-25T09:01:14.579Z,20.65
2019-04-25T09:03:50.206Z,20.86
2019-04-25T09:06:18.651Z,20.87
2019-04-25T09:08:46.929Z,20.96
2019-04-25T09:11:15.274Z,20.94
2019-04-25T09:13:44.926Z,20.97
2019-04-25T09:16:15.307Z,20.83
2019-04-25T09:18:44.295Z,20.95
2019-04-25T09:21:13.820Z,21.24
2019-04-25T09:23:43.720Z,21.41
2019-04-25T09:26:12.260Z,21.46
2019-04-25T09:28:41.061Z,21.51
2019-04-25T09:31:10.141Z,21.56
2019-04-25T09:33:39.149Z,21.69
2019-04-25T09:36:07.497Z,21.78
2019-04-25T09:38:36.862Z,21.74
2019-04-25T09:41:05.442Z,21.72
2019-04-25T09:43:33.727Z,21.80
2019-04-25T09:46:03.595Z,21.82
2019-04-25T09:48:35.379Z,21.88
2019-04-25T09:51:20.420Z,21.91
2019-04-25T09:53:51.487Z,22.13
2019-04-25T09:56:21.798Z,22.32
2019-04-25T09:58:51.681Z,22.18
2019-04-25T10:01:20.030Z,22.26
2019-04-25T10:03:48.250Z,22.24
2019-04-25T10:06:17.300Z,22.18
2019-04-25T10:08:46.314Z,22.58
2019-04-25T10:11:14.946Z,22.67
2019-04-25T10:13:46.599Z,22.54
2019-04-25T10:16:14.832Z,22.62
2019-04-25T10:18:44.358Z,22.16
2019-04-25T10:21:14.352Z,22.24
2019-04-25T10:23:44.070Z,22.43
2019-04-25T10:26:13.251Z,22.67
2019-04-25T10:28:43.671Z,22.79
2019-04-25T10:31:13.486Z,22.85
2019-04-25T10:33:43.745Z,23.02
2019-04-25T10:36:14.308Z,23.11
2019-04-25T10:38:44.412Z,23.04
2019-04-25T10:41:14.215Z,23.11
2019-04-25T10:43:42.664Z,22.86
2019-04-25T10:46:10.903Z,22.82
2019-04-25T10:48:40.103Z,23.12
2019-04-25T10:51:08.521Z,23.00
2019-04-25T10:53:36.746Z,23.02
2019-04-25T10:56:05.972Z,22.79
2019-04-25T10:58:35.294Z,22.51
2019-04-25T11:01:04.967Z,22.58
2019-04-25T11:03:34.907Z,22.62
2019-04-25T11:06:03.927Z,22.51
2019-04-25T11:08:34.016Z,22.58
2019-04-25T11:11:03.765Z,22.73
2019-04-25T11:13:33.964Z,22.46
2019-04-25T11:16:03.521Z,22.51
2019-04-25T11:18:31.921Z,22.59
2019-04-25T11:21:00.158Z,22.71
2019-04-25T11:23:28.441Z,22.66
2019-04-25T11:25:56.662Z,22.71
2019-04-25T11:28:24.941Z,22.72
2019-04-25T11:30:54.489Z,22.76
2019-04-25T11:33:24.674Z,22.40
2019-04-25T11:35:53.576Z,22.54
2019-04-25T11:38:24.637Z,22.46
2019-04-25T11:40:57.471Z,22.41
2019-04-25T11:43:25.694Z,22.60
2019-04-25T11:45:55.767Z,22.67
2019-04-25T11:48:23.945Z,22.55
2019-04-25T11:50:53.263Z,22.24
2019-04-25T11:53:24.785Z,22.23
2019-04-25T11:55:53.752Z,22.11
2019-04-25T11:58:23.578Z,22.33
2019-04-25T12:00:54.144Z,22.51
2019-04-25T12:03:23.225Z,22.31
2019-04-25T12:05:53.149Z,22.35
2019-04-25T12:08:21.776Z,22.50
2019-04-25T12:10:50.056Z,22.39
2019-04-25T12:13:18.305Z,22.37
2019-04-25T12:15:47.098Z,22.37
2019-04-25T12:18:15.708Z,22.36
2019-04-25T12:20:46.171Z,22.12
2019-04-25T12:23:14.475Z,22.17
2019-04-25T12:25:45.335Z,22.31
2019-04-25T12:28:14.150Z,22.32
2019-04-25T12:30:43.884Z,22.29
2019-04-25T12:33:20.345Z,22.30
2019-04-25T12:35:43.692Z,22.36
2019-04-25T12:38:12.110Z,22.50
2019-04-25T12:40:40.920Z,22.33
2019-04-25T12:43:09.234Z,22.35
2019-04-25T12:45:43.309Z,22.27
2019-04-25T12:48:14.504Z,22.28
2019-04-25T12:50:43.969Z,22.28
2019-04-25T12:53:13.913Z,22.23
2019-04-25T12:55:42.269Z,22.24
2019-04-25T12:58:10.614Z,22.31
2019-04-25T13:00:48.039Z,22.38
2019-04-25T13:03:08.843Z,22.37
2019-04-25T13:05:37.234Z,22.32
2019-04-25T13:08:05.472Z,22.18
2019-04-25T13:10:34.553Z,22.31
2019-04-25T13:13:03.975Z,22.31
2019-04-25T13:15:35.705Z,22.23
2019-04-25T13:18:03.649Z,22.24
2019-04-25T13:20:31.908Z,22.31
2019-04-25T13:23:00.603Z,22.24
2019-04-25T13:25:29.136Z,22.29
2019-04-25T13:27:59.594Z,22.23
2019-04-25T13:30:41.615Z,22.22
2019-04-25T13:33:13.296Z,22.08
2019-04-25T13:36:02.087Z,22.06
2019-04-25T13:38:30.499Z,21.93
2019-04-25T13:40:59.412Z,21.77
2019-04-25T13:43:27.885Z,21.77
2019-04-25T13:45:56.887Z,21.82
2019-04-25T13:48:26.534Z,21.89
2019-04-25T13:50:55.181Z,22.01
2019-04-25T13:53:24.672Z,21.96
2019-04-25T13:55:53.745Z,21.97
2019-04-25T13:58:22.266Z,22.11
2019-04-25T14:00:50.818Z,22.05
2019-04-25T14:03:19.084Z,21.98
2019-04-25T14:05:47.321Z,21.90
2019-04-25T14:08:15.611Z,21.81
2019-04-25T14:10:44.329Z,21.74
2019-04-25T14:13:13.492Z,21.84
2019-04-25T14:15:45.082Z,22.02
2019-04-25T14:18:18.106Z,22.08
2019-04-25T14:20:47.985Z,22.15
2019-04-25T14:23:16.209Z,22.37
2019-04-25T14:25:44.496Z,22.38
2019-04-25T14:28:14.138Z,22.33
2019-04-25T14:30:43.847Z,22.28
2019-04-25T14:33:13.572Z,22.09
2019-04-25T14:35:42.034Z,21.87
2019-04-25T14:38:10.274Z,21.70
2019-04-25T14:40:38.554Z,21.61
2019-04-25T14:43:07.058Z,21.52
2019-04-25T14:45:44.295Z,21.55
2019-04-25T14:48:05.356Z,21.55
2019-04-25T14:50:34.016Z,21.69
2019-04-25T14:53:02.744Z,21.76
2019-04-25T14:55:32.622Z,21.70
2019-04-25T14:58:02.538Z,21.59
2019-04-25T15:00:41.574Z,21.63
2019-04-25T15:03:10.148Z,21.64
2019-04-25T15:05:43.567Z,21.67
2019-04-25T15:08:12.232Z,21.66
2019-04-25T15:10:40.462Z,21.71
2019-04-25T15:13:08.816Z,21.71
2019-04-25T15:15:37.050Z,21.74
2019-04-25T15:18:05.323Z,21.84
2019-04-25T15:20:34.430Z,21.81
2019-04-25T15:23:02.718Z,21.82
2019-04-25T15:25:31.787Z,21.81
2019-04-25T15:28:00.348Z,21.75
2019-04-25T15:30:30.270Z,21.72
2019-04-25T15:32:58.893Z,21.72
2019-04-25T15:35:32.132Z,21.67
2019-04-25T15:38:08.326Z,21.50
2019-04-25T15:40:44.041Z,21.34
2019-04-25T15:43:16.361Z,21.23
2019-04-25T15:45:46.279Z,21.13
2019-04-25T15:48:14.519Z,21.10
2019-04-25T15:50:42.889Z,21.02
2019-04-25T15:53:11.241Z,20.98
2019-04-25T15:55:39.470Z,20.98
2019-04-25T15:58:07.753Z,20.97
2019-04-25T16:00:37.255Z,21.03
2019-04-25T16:03:05.839Z,21.00
2019-04-25T16:05:35.575Z,20.93
2019-04-25T16:08:04.556Z,20.92
2019-04-25T16:10:32.785Z,20.87
2019-04-25T16:13:01.062Z,20.84
2019-04-25T16:15:29.309Z,20.91
2019-04-25T16:17:57.629Z,20.92
2019-04-25T16:20:25.836Z,20.91
2019-04-25T16:22:54.074Z,20.81
2019-04-25T16:25:22.900Z,20.82
2019-04-25T16:27:51.301Z,20.75
2019-04-25T16:30:21.222Z,20.66
2019-04-25T16:32:49.463Z,20.60
2019-04-25T16:35:17.795Z,20.50
2019-04-25T16:37:46.022Z,20.44
2019-04-25T16:40:14.288Z,20.48
2019-04-25T16:42:42.523Z,20.42
2019-04-25T16:45:10.878Z,20.43
2019-04-25T16:47:39.186Z,20.34
2019-04-25T16:50:07.494Z,20.31
2019-04-25T16:52:35.888Z,20.26
2019-04-25T16:55:06.134Z,20.20
2019-04-25T16:57:34.840Z,20.15
2019-04-25T17:00:05.075Z,20.06
2019-04-25T17:02:37.530Z,20.00
2019-04-25T17:05:03.550Z,19.97
2019-04-25T17:07:31.913Z,19.94
2019-04-25T17:10:00.125Z,19.87
2019-04-25T17:12:28.418Z,19.86
2019-04-25T17:15:04.155Z,19.83
2019-04-25T17:17:34.103Z,19.75
2019-04-25T17:20:12.979Z,19.67
2019-04-25T17:22:41.546Z,19.66
2019-04-25T17:25:10.639Z,19.58
2019-04-25T17:27:39.169Z,19.53
2019-04-25T17:30:07.669Z,19.47
2019-04-25T17:32:50.393Z,19.47
2019-04-25T17:35:23.840Z,19.46
2019-04-25T17:37:53.717Z,19.47
2019-04-25T17:40:26.396Z,19.47
2019-04-25T17:42:54.627Z,19.44
2019-04-25T17:45:24.547Z,19.44
2019-04-25T17:47:54.945Z,19.44
2019-04-25T17:50:22.790Z,19.44
2019-04-25T17:52:51.025Z,19.38
2019-04-25T17:55:19.410Z,19.26
2019-04-25T17:57:47.650Z,19.14
2019-04-25T18:00:33.803Z,19.16
2019-04-25T18:03:02.084Z,19.07
2019-04-25T18:05:30.380Z,19.06
2019-04-25T18:07:58.606Z,18.86
2019-04-25T18:10:27.621Z,18.75
2019-04-25T18:12:55.970Z,18.69
2019-04-25T18:15:25.838Z,18.52
2019-04-25T18:17:54.175Z,18.54
2019-04-25T18:20:24.062Z,18.54
2019-04-25T18:22:53.974Z,18.52
2019-04-25T18:25:29.825Z,18.45
2019-04-25T18:27:59.767Z,18.49
2019-04-25T18:30:28.076Z,18.41
2019-04-25T18:33:14.316Z,18.34
2019-04-25T18:35:44.205Z,18.29
2019-04-25T18:38:14.080Z,18.29
2019-04-25T18:41:00.379Z,18.34
2019-04-25T18:43:33.457Z,18.45
2019-04-25T18:46:06.033Z,18.51
2019-04-25T18:48:34.261Z,18.54
2019-04-25T18:51:02.599Z,18.36
2019-04-25T18:53:39.195Z,18.22
2019-04-25T18:56:17.771Z,18.09
2019-04-25T18:59:04.007Z,18.03
2019-04-25T19:01:43.667Z,17.97
2019-04-25T19:04:30.365Z,17.88
2019-04-25T19:06:58.719Z,17.79
2019-04-25T19:09:27.054Z,17.79
2019-04-25T19:11:55.547Z,17.80
2019-04-25T19:14:23.774Z,17.75
2019-04-25T19:16:52.088Z,17.73
2019-04-25T19:19:20.323Z,17.71
2019-04-25T19:21:48.770Z,17.67
2019-04-25T19:24:17.002Z,17.64
2019-04-25T19:26:46.083Z,17.52
2019-04-25T19:29:14.496Z,17.39
2019-04-25T19:31:42.851Z,17.37
2019-04-25T19:34:11.138Z,17.44
2019-04-25T19:36:40.404Z,17.54
2019-04-25T19:39:09.532Z,17.56
2019-04-25T19:41:45.416Z,17.53
2019-04-25T19:44:21.517Z,17.51
2019-04-25T19:46:51.393Z,17.31
2019-04-25T19:49:19.682Z,17.30
2019-04-25T19:51:47.921Z,17.29
2019-04-25T19:54:16.234Z,17.39
2019-04-25T19:56:45.349Z,17.49
2019-04-25T19:59:13.994Z,17.47
2019-04-25T20:01:42.626Z,17.45
2019-04-25T20:04:25.086Z,17.36
2019-04-25T20:07:09.377Z,17.40
2019-04-25T20:09:48.997Z,17.43
2019-04-25T20:12:17.278Z,17.40
2019-04-25T20:14:45.575Z,17.50
2019-04-25T20:17:13.811Z,17.43
2019-04-25T20:19:42.064Z,17.33
2019-04-25T20:22:10.320Z,17.33
2019-04-25T20:24:38.557Z,17.26
2019-04-25T20:27:06.828Z,17.16
2019-04-25T20:29:35.054Z,17.22
2019-04-25T20:32:03.363Z,17.34
2019-04-25T20:34:31.584Z,17.23
2019-04-25T20:36:59.869Z,17.14
2019-04-25T20:39:28.090Z,17.35
2019-04-25T20:41:56.366Z,17.35
2019-04-25T20:44:24.607Z,17.29
2019-04-25T20:46:52.959Z,17.28
2019-04-25T20:49:21.187Z,17.29
2019-04-25T20:51:50.533Z,17.48
2019-04-25T20:54:18.973Z,17.46
2019-04-25T20:56:48.177Z,17.24
2019-04-25T20:59:17.543Z,17.26
2019-04-25T21:01:45.822Z,17.40
2019-04-25T21:04:32.063Z,17.45
2019-04-25T21:07:01.227Z,17.75
2019-04-25T21:09:29.843Z,17.70
2019-04-25T21:11:58.139Z,17.68
2019-04-25T21:14:30.957Z,17.71
2019-04-25T21:17:15.866Z,17.54
2019-04-25T21:19:52.806Z,17.50
2019-04-25T21:22:21.164Z,17.51
2019-04-25T21:24:49.486Z,17.50
2019-04-25T21:27:18.854Z,17.42
2019-04-25T21:29:47.075Z,17.38
2019-04-25T21:32:17.004Z,17.52
2019-04-25T21:34:45.520Z,17.43
2019-04-25T21:37:14.515Z,17.47
2019-04-25T21:39:52.257Z,17.35
2019-04-25T21:42:22.320Z,17.46
2019-04-25T21:44:51.796Z,17.55
2019-04-25T21:47:21.031Z,17.42
2019-04-25T21:49:49.686Z,17.30
2019-04-25T21:52:18.200Z,17.24
2019-04-25T21:54:48.603Z,17.22
2019-04-25T21:57:16.603Z,17.27
2019-04-25T21:59:45.064Z,17.28
2019-04-25T22:02:13.380Z,17.19
2019-04-25T22:04:42.754Z,17.15
2019-04-25T22:07:11.746Z,17.11
2019-04-25T22:09:40.298Z,17.01
2019-04-25T22:12:09.948Z,16.99
2019-04-25T22:14:38.230Z,17.18
2019-04-25T22:17:07.923Z,17.18
2019-04-25T22:19:36.582Z,17.21
2019-04-25T22:22:04.982Z,17.18
2019-04-25T22:24:33.270Z,17.16
2019-04-25T22:27:03.329Z,17.11
2019-04-25T22:29:33.192Z,17.07
2019-04-25T22:32:03.173Z,17.10
2019-04-25T22:34:33.475Z,17.24
2019-04-25T22:37:02.081Z,17.16
2019-04-25T22:39:30.696Z,17.27
2019-04-25T22:41:59.534Z,17.30
2019-04-25T22:44:29.063Z,17.13
2019-04-25T22:46:57.715Z,17.09
2019-04-25T22:49:26.109Z,17.08
2019-04-25T22:51:54.385Z,17.04
2019-04-25T22:54:23.760Z,17.11
2019-04-25T22:56:52.099Z,17.18
2019-04-25T22:59:20.405Z,17.10
2019-04-25T23:01:50.325Z,17.02
2019-04-25T23:04:20.200Z,16.92
2019-04-25T23:06:48.437Z,16.83
2019-04-25T23:09:16.717Z,16.86
2019-04-25T23:11:45.231Z,17.05
2019-04-25T23:14:13.886Z,17.12
2019-04-25T23:16:42.127Z,17.12
2019-04-25T23:19:11.244Z,17.03
2019-04-25T23:21:39.910Z,16.86
2019-04-25T23:24:08.186Z,16.73
2019-04-25T23:26:38.346Z,16.53
2019-04-25T23:29:08.448Z,16.45
2019-04-25T23:31:38.324Z,16.56
2019-04-25T23:34:07.042Z,16.77
2019-04-25T23:36:35.395Z,16.82
2019-04-25T23:39:06.374Z,16.86
2019-04-25T23:41:35.835Z,16.95
2019-04-25T23:44:05.395Z,17.06
2019-04-25T23:46:33.965Z,17.11
2019-04-25T23:49:02.867Z,17.16
2019-04-25T23:51:31.108Z,17.27
2019-04-25T23:54:00.196Z,17.41
2019-04-25T23:56:28.473Z,17.19
2019-04-25T23:58:56.882Z,17.19
